sensor_id;sensor_type;location;lat;lon;timestamp;pressure;altitude;pressure_sealevel;temperature;humidity
22830;BME280;11581;51.250;6.778;2023-05-11T00:00:39;100922.34;;;16.74;66.64
22830;BME280;11581;51.250;6.778;2023-05-11T00:03:05;100935.09;;;16.80;66.70
22830;BME280;11581;51.250;6.778;2023-05-11T00:05:35;100921.78;;;16.64;66.95
22830;BME280;11581;51.250;6.778;2023-05-11T00:08:02;100954.63;;;16.82;66.82
22830;BME280;11581;51.250;6.778;2023-05-11T00:10:28;100969.09;;;16.81;67.21
22830;BME280;11581;51.250;6.778;2023-05-11T00:12:55;100987.88;;;16.89;67.37
22830;BME280;11581;51.250;6.778;2023-05-11T00:15:22;100956.97;;;16.62;67.48
22830;BME280;11581;51.250;6.778;2023-05-11T00:17:49;101004.03;;;16.89;67.70
22830;BME280;11581;51.250;6.778;2023-05-11T00:20:15;100918.63;;;16.38;67.78
22830;BME280;11581;51.250;6.778;2023-05-11T00:22:42;101009.47;;;16.81;68.07
22830;BME280;11581;51.250;6.778;2023-05-11T00:25:08;101001.13;;;16.76;68.24
22830;BME280;11581;51.250;6.778;2023-05-11T00:27:35;100950.91;;;16.38;68.43
22830;BME280;11581;51.250;6.778;2023-05-11T00:30:01;100991.47;;;16.59;68.74
22830;BME280;11581;51.250;6.778;2023-05-11T00:32:28;100957.50;;;16.35;68.80
22830;BME280;11581;51.250;6.778;2023-05-11T00:34:55;100944.63;;;16.23;68.90
22830;BME280;11581;51.250;6.778;2023-05-11T00:37:21;100921.31;;;15.93;69.01
22830;BME280;11581;51.250;6.778;2023-05-11T00:39:50;100986.44;;;16.33;69.22
22830;BME280;11581;51.250;6.778;2023-05-11T00:42:17;100995.66;;;16.39;69.50
22830;BME280;11581;51.250;6.778;2023-05-11T00:44:43;101008.47;;;16.37;69.76
22830;BME280;11581;51.250;6.778;2023-05-11T00:47:10;100989.13;;;16.33;69.84
22830;BME280;11581;51.250;6.778;2023-05-11T00:49:38;101001.09;;;16.31;70.03
22830;BME280;11581;51.250;6.778;2023-05-11T00:52:05;100904.13;;;15.71;70.18
22830;BME280;11581;51.250;6.778;2023-05-11T00:54:32;100997.91;;;16.27;70.37
22830;BME280;11581;51.250;6.778;2023-05-11T00:56:58;101001.63;;;16.26;70.40
22830;BME280;11581;51.250;6.778;2023-05-11T00:59:26;101003.47;;;16.26;70.35
22830;BME280;11581;51.250;6.778;2023-05-11T01:01:53;100924.44;;;15.74;70.16
22830;BME280;11581;51.250;6.778;2023-05-11T01:04:19;100990.47;;;16.07;70.21
22830;BME280;11581;51.250;6.778;2023-05-11T01:15:00;101005.72;;;16.14;70.78
22830;BME280;11581;51.250;6.778;2023-05-11T01:17:37;100980.47;;;15.93;71.23
22830;BME280;11581;51.250;6.778;2023-05-11T01:20:14;100957.03;;;15.79;71.24
22830;BME280;11581;51.250;6.778;2023-05-11T01:28:19;100995.50;;;16.10;71.47
22830;BME280;11581;51.250;6.778;2023-05-11T01:30:51;100980.28;;;15.94;71.01
22830;BME280;11581;51.250;6.778;2023-05-11T01:33:31;100983.50;;;15.90;71.76
22830;BME280;11581;51.250;6.778;2023-05-11T01:36:03;100982.84;;;15.88;71.33
22830;BME280;11581;51.250;6.778;2023-05-11T01:38:33;100987.56;;;15.86;71.51
22830;BME280;11581;51.250;6.778;2023-05-11T01:41:17;101014.91;;;15.97;71.87
22830;BME280;11581;51.250;6.778;2023-05-11T01:43:46;101013.59;;;15.93;71.70
22830;BME280;11581;51.250;6.778;2023-05-11T01:46:16;100961.84;;;15.52;71.36
22830;BME280;11581;51.250;6.778;2023-05-11T01:48:46;101004.44;;;15.72;71.94
22830;BME280;11581;51.250;6.778;2023-05-11T01:51:16;101017.22;;;15.70;71.82
22830;BME280;11581;51.250;6.778;2023-05-11T01:53:45;100976.31;;;15.43;71.94
22830;BME280;11581;51.250;6.778;2023-05-11T01:56:13;101008.38;;;15.53;72.29
22830;BME280;11581;51.250;6.778;2023-05-11T01:58:42;100963.06;;;15.26;72.84
22830;BME280;11581;51.250;6.778;2023-05-11T02:01:13;100937.94;;;15.11;72.99
22830;BME280;11581;51.250;6.778;2023-05-11T02:03:41;100989.44;;;15.38;73.15
22830;BME280;11581;51.250;6.778;2023-05-11T02:06:10;101011.56;;;15.48;73.45
22830;BME280;11581;51.250;6.778;2023-05-11T02:08:40;101013.78;;;15.45;73.44
22830;BME280;11581;51.250;6.778;2023-05-11T02:11:07;100991.44;;;15.28;73.73
22830;BME280;11581;51.250;6.778;2023-05-11T02:13:37;101012.25;;;15.42;74.14
22830;BME280;11581;51.250;6.778;2023-05-11T02:16:06;100982.41;;;15.21;74.06
22830;BME280;11581;51.250;6.778;2023-05-11T02:18:36;100906.28;;;14.74;74.21
22830;BME280;11581;51.250;6.778;2023-05-11T02:21:07;100946.84;;;15.03;74.53
22830;BME280;11581;51.250;6.778;2023-05-11T02:23:36;101013.44;;;15.40;74.39
22830;BME280;11581;51.250;6.778;2023-05-11T02:26:04;100911.31;;;14.77;74.42
22830;BME280;11581;51.250;6.778;2023-05-11T02:28:31;100937.81;;;14.88;74.48
22830;BME280;11581;51.250;6.778;2023-05-11T02:31:02;101019.66;;;15.40;74.90
22830;BME280;11581;51.250;6.778;2023-05-11T02:33:34;100994.97;;;15.29;75.03
22830;BME280;11581;51.250;6.778;2023-05-11T02:36:02;100969.13;;;15.12;74.95
22830;BME280;11581;51.250;6.778;2023-05-11T02:38:32;101008.59;;;15.43;74.73
22830;BME280;11581;51.250;6.778;2023-05-11T02:41:06;100950.19;;;15.05;75.10
22830;BME280;11581;51.250;6.778;2023-05-11T02:43:36;100989.75;;;15.35;74.72
22830;BME280;11581;51.250;6.778;2023-05-11T02:46:09;100918.34;;;14.94;75.02
22830;BME280;11581;51.250;6.778;2023-05-11T02:48:41;100991.13;;;15.39;75.05
22830;BME280;11581;51.250;6.778;2023-05-11T02:51:11;100935.75;;;15.06;74.99
22830;BME280;11581;51.250;6.778;2023-05-11T02:53:44;100967.59;;;15.25;74.92
22830;BME280;11581;51.250;6.778;2023-05-11T02:56:12;100975.34;;;15.36;74.87
22830;BME280;11581;51.250;6.778;2023-05-11T02:58:38;100926.03;;;15.05;74.76
22830;BME280;11581;51.250;6.778;2023-05-11T03:01:13;100992.94;;;15.47;74.86
22830;BME280;11581;51.250;6.778;2023-05-11T03:03:41;100975.16;;;15.30;74.65
22830;BME280;11581;51.250;6.778;2023-05-11T03:06:07;100985.75;;;15.39;74.55
22830;BME280;11581;51.250;6.778;2023-05-11T03:08:34;100929.06;;;15.02;74.86
22830;BME280;11581;51.250;6.778;2023-05-11T03:11:01;100956.56;;;15.20;74.83
22830;BME280;11581;51.250;6.778;2023-05-11T03:13:30;100944.31;;;15.10;74.89
22830;BME280;11581;51.250;6.778;2023-05-11T03:15:59;100937.78;;;15.04;74.74
22830;BME280;11581;51.250;6.778;2023-05-11T03:18:30;100953.88;;;15.12;74.55
22830;BME280;11581;51.250;6.778;2023-05-11T03:20:59;100929.06;;;15.02;74.52
22830;BME280;11581;51.250;6.778;2023-05-11T03:23:28;100942.44;;;15.10;74.65
22830;BME280;11581;51.250;6.778;2023-05-11T03:25:57;100979.19;;;15.26;74.55
22830;BME280;11581;51.250;6.778;2023-05-11T03:28:25;100953.22;;;15.02;74.35
22830;BME280;11581;51.250;6.778;2023-05-11T03:30:58;100963.94;;;15.10;74.44
22830;BME280;11581;51.250;6.778;2023-05-11T03:33:25;101013.28;;;15.33;74.48
22830;BME280;11581;51.250;6.778;2023-05-11T03:35:52;100836.06;;;14.31;74.55
22830;BME280;11581;51.250;6.778;2023-05-11T03:38:22;101012.78;;;15.30;74.81
22830;BME280;11581;51.250;6.778;2023-05-11T03:40:51;100973.88;;;15.10;74.78
22830;BME280;11581;51.250;6.778;2023-05-11T03:43:20;101004.19;;;15.26;74.88
22830;BME280;11581;51.250;6.778;2023-05-11T03:45:49;100969.50;;;15.01;75.10
22830;BME280;11581;51.250;6.778;2023-05-11T03:48:21;101007.25;;;15.23;75.33
22830;BME280;11581;51.250;6.778;2023-05-11T03:50:48;101013.44;;;15.24;75.51
22830;BME280;11581;51.250;6.778;2023-05-11T03:53:15;100988.81;;;15.04;75.60
22830;BME280;11581;51.250;6.778;2023-05-11T03:55:42;100984.09;;;15.14;75.88
22830;BME280;11581;51.250;6.778;2023-05-11T03:58:09;100986.47;;;15.01;75.77
22830;BME280;11581;51.250;6.778;2023-05-11T04:00:40;100941.84;;;14.92;76.13
22830;BME280;11581;51.250;6.778;2023-05-11T04:03:10;101003.84;;;15.29;76.31
22830;BME280;11581;51.250;6.778;2023-05-11T04:05:37;100949.34;;;15.05;75.99
22830;BME280;11581;51.250;6.778;2023-05-11T04:08:08;100936.47;;;14.92;75.99
22830;BME280;11581;51.250;6.778;2023-05-11T04:10:35;100949.00;;;15.08;75.87
22830;BME280;11581;51.250;6.778;2023-05-11T04:13:02;100987.75;;;15.29;75.87
22830;BME280;11581;51.250;6.778;2023-05-11T04:15:30;101004.19;;;15.42;75.82
22830;BME280;11581;51.250;6.778;2023-05-11T04:17:59;100945.97;;;15.11;75.90
22830;BME280;11581;51.250;6.778;2023-05-11T04:20:25;100912.28;;;14.92;75.81
22830;BME280;11581;51.250;6.778;2023-05-11T04:22:52;101008.88;;;15.48;75.97
22830;BME280;11581;51.250;6.778;2023-05-11T04:25:18;101003.84;;;15.45;76.00
22830;BME280;11581;51.250;6.778;2023-05-11T04:27:45;100928.72;;;15.05;75.86
22830;BME280;11581;51.250;6.778;2023-05-11T04:30:12;101015.75;;;15.59;76.00
22830;BME280;11581;51.250;6.778;2023-05-11T04:32:38;100931.69;;;15.10;75.91
22830;BME280;11581;51.250;6.778;2023-05-11T04:35:07;100947.31;;;15.23;75.78
22830;BME280;11581;51.250;6.778;2023-05-11T04:37:36;101017.75;;;15.65;75.53
22830;BME280;11581;51.250;6.778;2023-05-11T04:40:06;101018.59;;;15.66;75.45
22830;BME280;11581;51.250;6.778;2023-05-11T04:42:39;101027.28;;;15.76;75.36
22830;BME280;11581;51.250;6.778;2023-05-11T04:45:10;101014.88;;;15.67;75.25
22830;BME280;11581;51.250;6.778;2023-05-11T04:47:36;100906.88;;;15.08;75.01
22830;BME280;11581;51.250;6.778;2023-05-11T04:50:05;101010.34;;;15.67;74.98
22830;BME280;11581;51.250;6.778;2023-05-11T04:52:33;101030.28;;;15.81;75.05
22830;BME280;11581;51.250;6.778;2023-05-11T04:55:14;100959.88;;;15.38;74.92
22830;BME280;11581;51.250;6.778;2023-05-11T04:57:41;100993.22;;;15.60;75.02
22830;BME280;11581;51.250;6.778;2023-05-11T05:00:15;101014.88;;;15.67;74.95
22830;BME280;11581;51.250;6.778;2023-05-11T05:02:41;100949.78;;;15.32;74.82
22830;BME280;11581;51.250;6.778;2023-05-11T05:05:08;100988.56;;;15.54;74.77
22830;BME280;11581;51.250;6.778;2023-05-11T05:07:35;100981.00;;;15.49;75.08
22830;BME280;11581;51.250;6.778;2023-05-11T05:10:02;101022.56;;;15.78;75.30
22830;BME280;11581;51.250;6.778;2023-05-11T05:12:37;101041.03;;;15.89;75.27
22830;BME280;11581;51.250;6.778;2023-05-11T05:15:04;101058.47;;;15.93;75.15
22830;BME280;11581;51.250;6.778;2023-05-11T05:17:31;101057.28;;;15.95;75.09
22830;BME280;11581;51.250;6.778;2023-05-11T05:19:58;100982.97;;;15.55;74.97
22830;BME280;11581;51.250;6.778;2023-05-11T05:22:25;101014.03;;;15.74;74.89
22830;BME280;11581;51.250;6.778;2023-05-11T05:24:51;101026.91;;;15.87;74.97
22830;BME280;11581;51.250;6.778;2023-05-11T05:27:19;101044.97;;;16.01;74.97
22830;BME280;11581;51.250;6.778;2023-05-11T05:29:45;101063.78;;;16.09;75.01
22830;BME280;11581;51.250;6.778;2023-05-11T05:32:12;101061.38;;;16.14;74.88
22830;BME280;11581;51.250;6.778;2023-05-11T05:34:38;101032.09;;;15.96;74.64
22830;BME280;11581;51.250;6.778;2023-05-11T05:37:06;101004.41;;;15.80;74.41
22830;BME280;11581;51.250;6.778;2023-05-11T05:39:33;101068.13;;;16.18;74.21
22830;BME280;11581;51.250;6.778;2023-05-11T05:41:59;101073.50;;;16.18;74.26
22830;BME280;11581;51.250;6.778;2023-05-11T05:44:27;101069.84;;;16.11;74.21
22830;BME280;11581;51.250;6.778;2023-05-11T05:46:54;101066.59;;;16.15;74.11
22830;BME280;11581;51.250;6.778;2023-05-11T05:49:20;101021.66;;;15.93;74.60
22830;BME280;11581;51.250;6.778;2023-05-11T05:51:47;100999.19;;;15.78;74.51
22830;BME280;11581;51.250;6.778;2023-05-11T05:54:15;100957.78;;;15.56;74.36
22830;BME280;11581;51.250;6.778;2023-05-11T05:56:41;101011.72;;;15.94;74.27
22830;BME280;11581;51.250;6.778;2023-05-11T05:59:09;101063.34;;;16.28;74.28
22830;BME280;11581;51.250;6.778;2023-05-11T06:01:38;101082.78;;;16.46;74.33
22830;BME280;11581;51.250;6.778;2023-05-11T06:04:11;101039.16;;;16.20;73.91
22830;BME280;11581;51.250;6.778;2023-05-11T06:06:37;100999.63;;;15.98;73.81
22830;BME280;11581;51.250;6.778;2023-05-11T06:09:04;101081.88;;;16.61;74.16
22830;BME280;11581;51.250;6.778;2023-05-11T06:11:31;101095.25;;;16.69;74.21
22830;BME280;11581;51.250;6.778;2023-05-11T06:13:58;101054.97;;;16.53;74.20
22830;BME280;11581;51.250;6.778;2023-05-11T06:16:25;101031.28;;;16.49;74.02
22830;BME280;11581;51.250;6.778;2023-05-11T06:18:52;100997.34;;;16.40;73.85
22830;BME280;11581;51.250;6.778;2023-05-11T06:21:19;101045.22;;;16.75;73.80
22830;BME280;11581;51.250;6.778;2023-05-11T06:23:46;101068.56;;;17.05;73.70
22830;BME280;11581;51.250;6.778;2023-05-11T06:26:13;101082.53;;;17.23;73.68
22830;BME280;11581;51.250;6.778;2023-05-11T06:28:40;101091.13;;;17.41;73.69
22830;BME280;11581;51.250;6.778;2023-05-11T06:31:11;101034.88;;;17.23;74.90
22830;BME280;11581;51.250;6.778;2023-05-11T06:33:41;101017.63;;;17.47;75.93
22830;BME280;11581;51.250;6.778;2023-05-11T06:36:17;101016.22;;;17.95;77.56
22830;BME280;11581;51.250;6.778;2023-05-11T06:38:44;101029.25;;;18.62;80.53
22830;BME280;11581;51.250;6.778;2023-05-11T06:41:10;101064.25;;;19.67;81.51
22830;BME280;11581;51.250;6.778;2023-05-11T06:43:37;101055.91;;;20.44;78.98
22830;BME280;11581;51.250;6.778;2023-05-11T06:46:13;101081.50;;;21.47;73.30
22830;BME280;11581;51.250;6.778;2023-05-11T06:48:43;101075.94;;;22.12;69.42
22830;BME280;11581;51.250;6.778;2023-05-11T06:51:10;101078.88;;;22.61;66.32
22830;BME280;11581;51.250;6.778;2023-05-11T06:53:37;101025.72;;;22.65;63.35
22830;BME280;11581;51.250;6.778;2023-05-11T06:56:05;101058.88;;;23.11;60.09
22830;BME280;11581;51.250;6.778;2023-05-11T06:58:32;101077.28;;;23.40;60.13
22830;BME280;11581;51.250;6.778;2023-05-11T07:00:59;101024.47;;;23.23;59.51
22830;BME280;11581;51.250;6.778;2023-05-11T07:03:26;101075.34;;;23.65;58.99
22830;BME280;11581;51.250;6.778;2023-05-11T07:05:53;101077.81;;;23.73;57.42
22830;BME280;11581;51.250;6.778;2023-05-11T07:08:19;101081.72;;;23.77;56.36
22830;BME280;11581;51.250;6.778;2023-05-11T07:10:46;100985.34;;;23.24;55.65
22830;BME280;11581;51.250;6.778;2023-05-11T07:13:12;100987.00;;;23.19;55.01
22830;BME280;11581;51.250;6.778;2023-05-11T07:15:39;101012.09;;;23.27;54.10
22830;BME280;11581;51.250;6.778;2023-05-11T07:18:06;101080.47;;;23.55;53.87
22830;BME280;11581;51.250;6.778;2023-05-11T07:20:32;101074.56;;;23.40;53.96
22830;BME280;11581;51.250;6.778;2023-05-11T07:23:02;100986.66;;;22.66;54.30
22830;BME280;11581;51.250;6.778;2023-05-11T07:25:29;101081.91;;;23.09;54.48
22830;BME280;11581;51.250;6.778;2023-05-11T07:27:56;101039.75;;;22.62;54.23
22830;BME280;11581;51.250;6.778;2023-05-11T07:30:23;101057.31;;;22.66;54.43
22830;BME280;11581;51.250;6.778;2023-05-11T07:32:49;101064.06;;;22.57;55.14
22830;BME280;11581;51.250;6.778;2023-05-11T07:35:16;101035.69;;;22.40;56.35
22830;BME280;11581;51.250;6.778;2023-05-11T07:37:43;101069.50;;;22.57;56.80
22830;BME280;11581;51.250;6.778;2023-05-11T07:40:09;101083.00;;;22.70;56.95
22830;BME280;11581;51.250;6.778;2023-05-11T07:42:36;101076.06;;;22.74;57.53
22830;BME280;11581;51.250;6.778;2023-05-11T07:45:03;101094.34;;;22.98;57.81
22830;BME280;11581;51.250;6.778;2023-05-11T07:47:30;101100.91;;;23.15;57.97
22830;BME280;11581;51.250;6.778;2023-05-11T07:49:56;101088.66;;;23.31;58.06
22830;BME280;11581;51.250;6.778;2023-05-11T07:52:23;101097.59;;;23.62;58.67
22830;BME280;11581;51.250;6.778;2023-05-11T07:54:49;101076.44;;;23.82;57.47
22830;BME280;11581;51.250;6.778;2023-05-11T07:57:16;101082.38;;;24.16;55.70
22830;BME280;11581;51.250;6.778;2023-05-11T07:59:42;101068.88;;;24.21;53.75
22830;BME280;11581;51.250;6.778;2023-05-11T08:02:09;101037.66;;;24.05;52.30
22830;BME280;11581;51.250;6.778;2023-05-11T08:04:36;101075.63;;;24.18;51.08
22830;BME280;11581;51.250;6.778;2023-05-11T08:07:03;101018.41;;;23.64;50.71
22830;BME280;11581;51.250;6.778;2023-05-11T08:09:30;101090.59;;;23.91;50.42
22830;BME280;11581;51.250;6.778;2023-05-11T08:11:56;101093.59;;;23.65;50.96
22830;BME280;11581;51.250;6.778;2023-05-11T08:14:25;101087.78;;;23.37;51.32
22830;BME280;11581;51.250;6.778;2023-05-11T08:16:52;101105.56;;;23.08;52.13
22830;BME280;11581;51.250;6.778;2023-05-11T08:19:18;101067.75;;;22.69;52.57
22830;BME280;11581;51.250;6.778;2023-05-11T08:21:45;101095.38;;;22.66;52.99
22830;BME280;11581;51.250;6.778;2023-05-11T08:24:12;101105.06;;;22.49;53.72
22830;BME280;11581;51.250;6.778;2023-05-11T08:26:38;100950.44;;;21.40;54.20
22830;BME280;11581;51.250;6.778;2023-05-11T08:29:06;101073.03;;;22.07;54.77
22830;BME280;11581;51.250;6.778;2023-05-11T08:31:33;101082.66;;;22.03;54.98
22830;BME280;11581;51.250;6.778;2023-05-11T08:33:59;101048.69;;;21.81;55.68
22830;BME280;11581;51.250;6.778;2023-05-11T08:36:27;101107.69;;;22.12;56.09
22830;BME280;11581;51.250;6.778;2023-05-11T08:38:54;101110.19;;;22.13;55.96
22830;BME280;11581;51.250;6.778;2023-05-11T08:41:21;101000.91;;;21.47;55.54
22830;BME280;11581;51.250;6.778;2023-05-11T08:43:48;101094.75;;;22.14;55.24
22830;BME280;11581;51.250;6.778;2023-05-11T08:46:20;101102.00;;;22.26;54.74
22830;BME280;11581;51.250;6.778;2023-05-11T08:48:51;101062.56;;;22.11;56.38
22830;BME280;11581;51.250;6.778;2023-05-11T08:51:18;101030.03;;;21.98;56.27
22830;BME280;11581;51.250;6.778;2023-05-11T08:53:45;101108.81;;;22.55;56.86
22830;BME280;11581;51.250;6.778;2023-05-11T08:56:11;101096.16;;;22.73;57.47
22830;BME280;11581;51.250;6.778;2023-05-11T08:58:39;101037.25;;;22.61;57.01
22830;BME280;11581;51.250;6.778;2023-05-11T09:01:09;101039.97;;;22.92;55.35
22830;BME280;11581;51.250;6.778;2023-05-11T09:03:38;101104.94;;;23.62;54.26
22830;BME280;11581;51.250;6.778;2023-05-11T09:06:06;101097.78;;;23.85;53.84
22830;BME280;11581;51.250;6.778;2023-05-11T09:08:34;101113.13;;;24.05;53.17
22830;BME280;11581;51.250;6.778;2023-05-11T09:11:02;101090.50;;;24.04;52.47
22830;BME280;11581;51.250;6.778;2023-05-11T09:13:31;101107.53;;;24.18;51.54
22830;BME280;11581;51.250;6.778;2023-05-11T09:15:58;101110.72;;;24.15;51.51
22830;BME280;11581;51.250;6.778;2023-05-11T09:18:25;101080.53;;;23.91;51.03
22830;BME280;11581;51.250;6.778;2023-05-11T09:20:51;101030.44;;;23.56;51.09
22830;BME280;11581;51.250;6.778;2023-05-11T09:23:23;101091.50;;;23.85;49.66
22830;BME280;11581;51.250;6.778;2023-05-11T09:25:51;101092.47;;;23.72;50.97
22830;BME280;11581;51.250;6.778;2023-05-11T09:28:24;101015.28;;;23.18;49.56
22830;BME280;11581;51.250;6.778;2023-05-11T09:30:52;101111.06;;;23.57;51.83
22830;BME280;11581;51.250;6.778;2023-05-11T09:33:23;101084.84;;;23.38;50.53
22830;BME280;11581;51.250;6.778;2023-05-11T09:35:51;101099.88;;;23.41;51.69
22830;BME280;11581;51.250;6.778;2023-05-11T09:38:19;101065.34;;;23.10;50.95
22830;BME280;11581;51.250;6.778;2023-05-11T09:40:54;101104.00;;;23.25;50.70
22830;BME280;11581;51.250;6.778;2023-05-11T09:43:25;101096.69;;;23.19;52.65
22830;BME280;11581;51.250;6.778;2023-05-11T09:45:54;101041.72;;;22.80;52.68
22830;BME280;11581;51.250;6.778;2023-05-11T09:48:29;101112.63;;;23.16;51.18
22830;BME280;11581;51.250;6.778;2023-05-11T09:51:05;101109.22;;;23.20;50.96
22830;BME280;11581;51.250;6.778;2023-05-11T09:53:42;101110.50;;;23.24;52.36
22830;BME280;11581;51.250;6.778;2023-05-11T09:56:11;101062.94;;;23.02;53.76
22830;BME280;11581;51.250;6.778;2023-05-11T10:01:12;101095.63;;;23.20;53.07
22830;BME280;11581;51.250;6.778;2023-05-11T10:03:49;100995.84;;;22.65;50.56
22830;BME280;11581;51.250;6.778;2023-05-11T10:06:18;101100.41;;;23.31;52.53
22830;BME280;11581;51.250;6.778;2023-05-11T10:08:46;101107.13;;;23.29;51.99
22830;BME280;11581;51.250;6.778;2023-05-11T10:11:13;101088.81;;;23.11;52.17
22830;BME280;11581;51.250;6.778;2023-05-11T10:13:42;101063.59;;;22.98;51.58
22830;BME280;11581;51.250;6.778;2023-05-11T10:16:11;101048.88;;;22.81;51.87
22830;BME280;11581;51.250;6.778;2023-05-11T10:18:38;101090.47;;;23.12;52.65
22830;BME280;11581;51.250;6.778;2023-05-11T10:21:08;101112.78;;;23.21;52.71
22830;BME280;11581;51.250;6.778;2023-05-11T10:23:35;101014.75;;;22.78;52.55
22830;BME280;11581;51.250;6.778;2023-05-11T10:26:03;101018.63;;;22.71;52.62
22830;BME280;11581;51.250;6.778;2023-05-11T10:28:30;101054.09;;;23.07;52.13
22830;BME280;11581;51.250;6.778;2023-05-11T10:30:57;101099.56;;;23.31;51.94
22830;BME280;11581;51.250;6.778;2023-05-11T10:33:24;101052.84;;;23.03;52.46
22830;BME280;11581;51.250;6.778;2023-05-11T10:35:52;101075.72;;;23.26;52.16
22830;BME280;11581;51.250;6.778;2023-05-11T10:38:19;101087.56;;;23.38;52.20
22830;BME280;11581;51.250;6.778;2023-05-11T10:40:47;101098.22;;;23.40;51.27
22830;BME280;11581;51.250;6.778;2023-05-11T10:43:48;101084.78;;;23.45;49.77
22830;BME280;11581;51.250;6.778;2023-05-11T10:46:40;101050.34;;;23.32;49.28
22830;BME280;11581;51.250;6.778;2023-05-11T10:49:40;101096.78;;;23.62;49.14
22830;BME280;11581;51.250;6.778;2023-05-11T10:58:05;101089.91;;;23.77;51.10
22830;BME280;11581;51.250;6.778;2023-05-11T11:03:09;101091.91;;;23.88;52.19
22830;BME280;11581;51.250;6.778;2023-05-11T11:05:36;101070.56;;;23.85;52.02
22830;BME280;11581;51.250;6.778;2023-05-11T11:08:04;101056.31;;;23.83;50.94
22830;BME280;11581;51.250;6.778;2023-05-11T11:10:40;101094.94;;;24.17;51.58
22830;BME280;11581;51.250;6.778;2023-05-11T11:13:12;101090.41;;;24.29;50.54
22830;BME280;11581;51.250;6.778;2023-05-11T11:20:55;101078.38;;;24.66;47.63
22830;BME280;11581;51.250;6.778;2023-05-11T11:26:11;101054.06;;;24.64;47.83
22830;BME280;11581;51.250;6.778;2023-05-11T11:29:09;101072.28;;;24.82;46.94
22830;BME280;11581;51.250;6.778;2023-05-11T11:31:36;101081.34;;;24.94;49.83
22830;BME280;11581;51.250;6.778;2023-05-11T11:39:25;101081.00;;;25.66;49.09
22830;BME280;11581;51.250;6.778;2023-05-11T11:42:03;101074.81;;;26.05;44.94
22830;BME280;11581;51.250;6.778;2023-05-11T11:44:29;101016.69;;;26.10;48.74
22830;BME280;11581;51.250;6.778;2023-05-11T11:47:16;101016.81;;;26.59;44.54
22830;BME280;11581;51.250;6.778;2023-05-11T11:49:51;101063.84;;;27.17;45.13
22830;BME280;11581;51.250;6.778;2023-05-11T11:52:34;101071.63;;;27.53;42.13
22830;BME280;11581;51.250;6.778;2023-05-11T11:55:02;101067.50;;;27.72;43.17
22830;BME280;11581;51.250;6.778;2023-05-11T12:00:06;101008.44;;;27.43;42.06
22830;BME280;11581;51.250;6.778;2023-05-11T12:02:42;101056.81;;;27.71;40.87
22830;BME280;11581;51.250;6.778;2023-05-11T12:07:43;101024.41;;;27.30;39.99
22830;BME280;11581;51.250;6.778;2023-05-11T12:10:14;101012.66;;;27.01;40.16
22830;BME280;11581;51.250;6.778;2023-05-11T12:12:46;101062.38;;;27.10;40.60
22830;BME280;11581;51.250;6.778;2023-05-11T12:15:27;101051.56;;;26.87;41.65
22830;BME280;11581;51.250;6.778;2023-05-11T12:17:55;100987.03;;;26.30;42.56
22830;BME280;11581;51.250;6.778;2023-05-11T12:20:22;101062.41;;;26.54;42.30
22830;BME280;11581;51.250;6.778;2023-05-11T12:22:50;101047.91;;;26.25;42.49
22830;BME280;11581;51.250;6.778;2023-05-11T12:25:18;101043.66;;;26.06;42.70
22830;BME280;11581;51.250;6.778;2023-05-11T12:27:49;101068.38;;;25.99;42.44
22830;BME280;11581;51.250;6.778;2023-05-11T12:30:23;101057.13;;;25.84;42.07
22830;BME280;11581;51.250;6.778;2023-05-11T12:32:51;101041.22;;;25.58;43.65
22830;BME280;11581;51.250;6.778;2023-05-11T12:35:22;101024.72;;;25.42;42.81
22830;BME280;11581;51.250;6.778;2023-05-11T12:37:50;101054.97;;;25.52;44.31
22830;BME280;11581;51.250;6.778;2023-05-11T12:40:17;101020.78;;;25.26;44.06
22830;BME280;11581;51.250;6.778;2023-05-11T12:42:54;100989.06;;;24.91;42.22
22830;BME280;11581;51.250;6.778;2023-05-11T12:45:22;101040.91;;;25.14;44.13
22830;BME280;11581;51.250;6.778;2023-05-11T12:47:50;101054.31;;;25.04;44.31
22830;BME280;11581;51.250;6.778;2023-05-11T12:50:18;101022.59;;;24.80;44.02
22830;BME280;11581;51.250;6.778;2023-05-11T12:52:47;101038.59;;;24.76;44.62
22830;BME280;11581;51.250;6.778;2023-05-11T12:55:26;100978.03;;;24.27;43.67
22830;BME280;11581;51.250;6.778;2023-05-11T12:58:13;101009.25;;;24.31;44.03
22830;BME280;11581;51.250;6.778;2023-05-11T13:01:09;101041.97;;;24.31;44.30
22830;BME280;11581;51.250;6.778;2023-05-11T13:03:36;100957.53;;;23.76;46.13
22830;BME280;11581;51.250;6.778;2023-05-11T13:06:07;101034.53;;;24.20;44.74
22830;BME280;11581;51.250;6.778;2023-05-11T13:08:35;101030.00;;;24.14;45.44
22830;BME280;11581;51.250;6.778;2023-05-11T13:11:22;101028.81;;;24.10;45.24
22830;BME280;11581;51.250;6.778;2023-05-11T13:13:51;101025.84;;;24.11;47.02
22830;BME280;11581;51.250;6.778;2023-05-11T13:16:31;101016.94;;;24.04;45.33
22830;BME280;11581;51.250;6.778;2023-05-11T13:19:03;101032.13;;;24.12;45.36
22830;BME280;11581;51.250;6.778;2023-05-11T13:21:30;101023.75;;;24.13;46.63
22830;BME280;11581;51.250;6.778;2023-05-11T13:23:58;101029.19;;;24.13;46.41
22830;BME280;11581;51.250;6.778;2023-05-11T13:26:29;100888.94;;;23.32;46.37
22830;BME280;11581;51.250;6.778;2023-05-11T13:28:56;100982.94;;;23.88;46.93
22830;BME280;11581;51.250;6.778;2023-05-11T13:31:23;100944.16;;;23.75;47.12
22830;BME280;11581;51.250;6.778;2023-05-11T13:33:50;101011.09;;;24.19;46.58
22830;BME280;11581;51.250;6.778;2023-05-11T13:36:18;101015.91;;;24.35;46.50
22830;BME280;11581;51.250;6.778;2023-05-11T13:38:44;100985.59;;;24.13;46.27
22830;BME280;11581;51.250;6.778;2023-05-11T13:41:11;100995.84;;;24.29;46.24
22830;BME280;11581;51.250;6.778;2023-05-11T13:43:38;100959.84;;;24.09;46.35